sensor_id;sensor_type;location;lat;lon;timestamp;temperature;humidity
981;DHT22;479;53.514;9.994;2022-10-23T00:01:35;13.50;99.90
981;DHT22;479;53.514;9.994;2022-10-23T00:04:06;13.60;99.90
981;DHT22;479;53.514;9.994;2022-10-23T00:06:34;13.60;99.90
981;DHT22;479;53.514;9.994;2022-10-23T00:09:03;13.40;99.90
981;DHT22;479;53.514;9.994;2022-10-23T00:11:31;13.30;99.90
981;DHT22;479;53.514;9.994;2022-10-23T00:14:00;13.20;99.90
981;DHT22;479;53.514;9.994;2022-10-23T00:16:28;13.10;99.90
981;DHT22;479;53.514;9.994;2022-10-23T00:18:55;13.00;99.90
981;DHT22;479;53.514;9.994;2022-10-23T00:21:24;13.00;99.90
981;DHT22;479;53.514;9.994;2022-10-23T00:23:51;12.90;99.90
981;DHT22;479;53.514;9.994;2022-10-23T00:26:19;12.90;99.90
981;DHT22;479;53.514;9.994;2022-10-23T00:28:48;12.90;99.90
981;DHT22;479;53.514;9.994;2022-10-23T00:31:15;12.80;99.90
981;DHT22;479;53.514;9.994;2022-10-23T00:33:42;12.70;99.90
981;DHT22;479;53.514;9.994;2022-10-23T00:36:11;12.70;99.90
981;DHT22;479;53.514;9.994;2022-10-23T00:38:39;12.70;99.90
981;DHT22;479;53.514;9.994;2022-10-23T00:41:09;12.70;99.90
981;DHT22;479;53.514;9.994;2022-10-23T00:43:55;12.70;99.90
981;DHT22;479;53.514;9.994;2022-10-23T00:46:23;12.60;99.90
981;DHT22;479;53.514;9.994;2022-10-23T00:48:50;12.60;99.90
981;DHT22;479;53.514;9.994;2022-10-23T00:51:17;12.60;99.90
981;DHT22;479;53.514;9.994;2022-10-23T00:53:47;12.50;99.90
981;DHT22;479;53.514;9.994;2022-10-23T00:56:15;12.50;99.90
981;DHT22;479;53.514;9.994;2022-10-23T00:58:42;12.50;99.90
981;DHT22;479;53.514;9.994;2022-10-23T01:01:17;12.40;99.90
981;DHT22;479;53.514;9.994;2022-10-23T01:03:47;12.40;99.90
981;DHT22;479;53.514;9.994;2022-10-23T01:06:21;12.40;99.90
981;DHT22;479;53.514;9.994;2022-10-23T01:08:53;12.30;99.90
981;DHT22;479;53.514;9.994;2022-10-23T01:11:25;12.50;99.90
981;DHT22;479;53.514;9.994;2022-10-23T01:13:59;12.60;99.90
981;DHT22;479;53.514;9.994;2022-10-23T01:16:34;12.80;99.90
981;DHT22;479;53.514;9.994;2022-10-23T01:19:11;12.60;99.90
981;DHT22;479;53.514;9.994;2022-10-23T01:21:48;12.40;99.90
981;DHT22;479;53.514;9.994;2022-10-23T01:24:28;12.30;99.90
981;DHT22;479;53.514;9.994;2022-10-23T01:27:17;12.30;99.90
981;DHT22;479;53.514;9.994;2022-10-23T01:29:47;12.20;99.90
981;DHT22;479;53.514;9.994;2022-10-23T01:32:23;12.20;99.90
981;DHT22;479;53.514;9.994;2022-10-23T01:34:58;12.10;99.90
981;DHT22;479;53.514;9.994;2022-10-23T01:37:32;12.10;99.90
981;DHT22;479;53.514;9.994;2022-10-23T01:40:04;12.00;99.90
981;DHT22;479;53.514;9.994;2022-10-23T01:42:38;12.00;99.90
981;DHT22;479;53.514;9.994;2022-10-23T01:45:10;12.10;99.90
981;DHT22;479;53.514;9.994;2022-10-23T01:47:43;12.30;99.90
981;DHT22;479;53.514;9.994;2022-10-23T01:50:13;12.30;99.90
981;DHT22;479;53.514;9.994;2022-10-23T01:52:44;12.20;99.90
981;DHT22;479;53.514;9.994;2022-10-23T01:55:11;12.20;99.90
981;DHT22;479;53.514;9.994;2022-10-23T01:57:41;12.20;99.90
981;DHT22;479;53.514;9.994;2022-10-23T02:00:12;12.20;99.90
981;DHT22;479;53.514;9.994;2022-10-23T02:02:53;12.20;99.90
981;DHT22;479;53.514;9.994;2022-10-23T02:05:26;12.10;99.90
981;DHT22;479;53.514;9.994;2022-10-23T02:07:56;12.00;99.90
981;DHT22;479;53.514;9.994;2022-10-23T02:10:26;11.90;99.90
981;DHT22;479;53.514;9.994;2022-10-23T02:13:00;11.80;99.90
981;DHT22;479;53.514;9.994;2022-10-23T02:15:33;11.70;99.90
981;DHT22;479;53.514;9.994;2022-10-23T02:18:05;11.70;99.90
981;DHT22;479;53.514;9.994;2022-10-23T02:20:37;11.70;99.90
981;DHT22;479;53.514;9.994;2022-10-23T02:23:15;11.70;99.90
981;DHT22;479;53.514;9.994;2022-10-23T02:25:49;11.70;99.90
981;DHT22;479;53.514;9.994;2022-10-23T02:28:21;11.70;99.90
981;DHT22;479;53.514;9.994;2022-10-23T02:30:59;11.80;99.90
981;DHT22;479;53.514;9.994;2022-10-23T02:33:27;11.80;99.90
981;DHT22;479;53.514;9.994;2022-10-23T02:35:55;11.80;99.90
981;DHT22;479;53.514;9.994;2022-10-23T02:38:29;11.70;99.90
981;DHT22;479;53.514;9.994;2022-10-23T02:41:00;11.60;99.90
981;DHT22;479;53.514;9.994;2022-10-23T02:43:42;11.60;99.90
981;DHT22;479;53.514;9.994;2022-10-23T02:46:17;11.60;99.90
981;DHT22;479;53.514;9.994;2022-10-23T02:48:50;11.50;99.90
981;DHT22;479;53.514;9.994;2022-10-23T02:51:23;11.50;99.90
981;DHT22;479;53.514;9.994;2022-10-23T02:53:59;11.50;99.90
981;DHT22;479;53.514;9.994;2022-10-23T02:56:36;11.50;99.90
981;DHT22;479;53.514;9.994;2022-10-23T02:59:10;11.50;99.90
981;DHT22;479;53.514;9.994;2022-10-23T03:01:43;11.50;99.90
981;DHT22;479;53.514;9.994;2022-10-23T03:04:14;11.50;99.90
981;DHT22;479;53.514;9.994;2022-10-23T03:06:42;11.40;99.90
981;DHT22;479;53.514;9.994;2022-10-23T03:09:14;11.40;99.90
981;DHT22;479;53.514;9.994;2022-10-23T03:11:41;11.40;99.90
981;DHT22;479;53.514;9.994;2022-10-23T03:14:10;11.40;99.90
981;DHT22;479;53.514;9.994;2022-10-23T03:16:38;11.40;99.90
981;DHT22;479;53.514;9.994;2022-10-23T03:19:05;11.40;99.90
981;DHT22;479;53.514;9.994;2022-10-23T03:21:32;11.40;99.90
981;DHT22;479;53.514;9.994;2022-10-23T03:24:00;11.40;99.90
981;DHT22;479;53.514;9.994;2022-10-23T03:26:33;11.40;99.90
981;DHT22;479;53.514;9.994;2022-10-23T03:29:00;11.40;99.90
981;DHT22;479;53.514;9.994;2022-10-23T03:31:29;11.40;99.90
981;DHT22;479;53.514;9.994;2022-10-23T03:33:58;11.40;99.90
981;DHT22;479;53.514;9.994;2022-10-23T03:36:25;11.40;99.90
981;DHT22;479;53.514;9.994;2022-10-23T03:38:52;11.40;99.90
981;DHT22;479;53.514;9.994;2022-10-23T03:41:20;11.30;99.90
981;DHT22;479;53.514;9.994;2022-10-23T03:43:47;11.30;99.90
981;DHT22;479;53.514;9.994;2022-10-23T03:46:14;11.30;99.90
981;DHT22;479;53.514;9.994;2022-10-23T03:48:43;11.40;99.90
981;DHT22;479;53.514;9.994;2022-10-23T03:51:10;11.40;99.90
981;DHT22;479;53.514;9.994;2022-10-23T03:53:39;11.30;99.90
981;DHT22;479;53.514;9.994;2022-10-23T03:56:06;11.40;99.90
981;DHT22;479;53.514;9.994;2022-10-23T03:58:33;11.40;99.90
981;DHT22;479;53.514;9.994;2022-10-23T04:01:00;11.40;99.90
981;DHT22;479;53.514;9.994;2022-10-23T04:03:27;11.40;99.90
981;DHT22;479;53.514;9.994;2022-10-23T04:05:55;11.40;99.90
981;DHT22;479;53.514;9.994;2022-10-23T04:08:22;11.40;99.90
981;DHT22;479;53.514;9.994;2022-10-23T04:10:53;11.40;99.90
981;DHT22;479;53.514;9.994;2022-10-23T04:13:26;11.30;99.90
981;DHT22;479;53.514;9.994;2022-10-23T04:15:53;11.30;99.90
981;DHT22;479;53.514;9.994;2022-10-23T04:18:20;11.20;99.90
981;DHT22;479;53.514;9.994;2022-10-23T04:20:47;11.30;99.90
981;DHT22;479;53.514;9.994;2022-10-23T04:23:15;11.20;99.90
981;DHT22;479;53.514;9.994;2022-10-23T04:25:44;11.10;99.90
981;DHT22;479;53.514;9.994;2022-10-23T04:28:12;11.10;99.90
981;DHT22;479;53.514;9.994;2022-10-23T04:30:40;11.10;99.90
981;DHT22;479;53.514;9.994;2022-10-23T04:33:09;11.00;99.90
981;DHT22;479;53.514;9.994;2022-10-23T04:35:36;10.90;99.90
981;DHT22;479;53.514;9.994;2022-10-23T04:38:03;10.80;99.90
981;DHT22;479;53.514;9.994;2022-10-23T04:40:31;10.90;99.90
981;DHT22;479;53.514;9.994;2022-10-23T04:42:59;10.90;99.90
981;DHT22;479;53.514;9.994;2022-10-23T04:45:30;10.90;99.90
981;DHT22;479;53.514;9.994;2022-10-23T04:47:57;10.90;99.90
981;DHT22;479;53.514;9.994;2022-10-23T04:50:24;10.80;99.90
981;DHT22;479;53.514;9.994;2022-10-23T04:53:10;10.80;99.90
981;DHT22;479;53.514;9.994;2022-10-23T04:55:59;10.80;99.90
981;DHT22;479;53.514;9.994;2022-10-23T04:58:44;10.80;99.90
981;DHT22;479;53.514;9.994;2022-10-23T05:01:11;10.80;99.90
981;DHT22;479;53.514;9.994;2022-10-23T05:03:38;10.80;99.90
981;DHT22;479;53.514;9.994;2022-10-23T05:06:06;10.80;99.90
981;DHT22;479;53.514;9.994;2022-10-23T05:08:41;10.70;99.90
981;DHT22;479;53.514;9.994;2022-10-23T05:11:21;10.70;99.90
981;DHT22;479;53.514;9.994;2022-10-23T05:13:50;10.70;99.90
981;DHT22;479;53.514;9.994;2022-10-23T05:16:27;10.70;99.90
981;DHT22;479;53.514;9.994;2022-10-23T05:18:54;10.60;99.90
981;DHT22;479;53.514;9.994;2022-10-23T05:21:25;10.60;99.90
981;DHT22;479;53.514;9.994;2022-10-23T05:23:53;10.50;99.90
981;DHT22;479;53.514;9.994;2022-10-23T05:26:22;10.50;99.90
981;DHT22;479;53.514;9.994;2022-10-23T05:28:51;10.50;99.90
981;DHT22;479;53.514;9.994;2022-10-23T05:31:19;10.50;99.90
981;DHT22;479;53.514;9.994;2022-10-23T05:33:50;10.40;99.90
981;DHT22;479;53.514;9.994;2022-10-23T05:36:21;10.40;99.90
981;DHT22;479;53.514;9.994;2022-10-23T05:38:54;10.40;99.90
981;DHT22;479;53.514;9.994;2022-10-23T05:41:23;10.30;99.90
981;DHT22;479;53.514;9.994;2022-10-23T05:43:49;10.30;99.90
981;DHT22;479;53.514;9.994;2022-10-23T05:46:39;10.10;99.90
981;DHT22;479;53.514;9.994;2022-10-23T05:49:27;10.10;99.90
981;DHT22;479;53.514;9.994;2022-10-23T05:52:20;10.00;99.90
981;DHT22;479;53.514;9.994;2022-10-23T05:55:06;10.00;99.90
981;DHT22;479;53.514;9.994;2022-10-23T05:57:53;10.00;99.90
981;DHT22;479;53.514;9.994;2022-10-23T06:00:34;10.00;99.90
981;DHT22;479;53.514;9.994;2022-10-23T06:03:21;9.90;99.90
981;DHT22;479;53.514;9.994;2022-10-23T06:05:48;9.90;99.90
981;DHT22;479;53.514;9.994;2022-10-23T06:08:21;9.80;99.90
981;DHT22;479;53.514;9.994;2022-10-23T06:10:49;9.80;99.90
981;DHT22;479;53.514;9.994;2022-10-23T06:13:19;9.80;99.90
981;DHT22;479;53.514;9.994;2022-10-23T06:15:45;9.80;99.90
981;DHT22;479;53.514;9.994;2022-10-23T06:18:21;9.80;99.90
981;DHT22;479;53.514;9.994;2022-10-23T06:20:59;9.80;99.90
981;DHT22;479;53.514;9.994;2022-10-23T06:23:26;9.70;99.90
981;DHT22;479;53.514;9.994;2022-10-23T06:26:10;9.70;99.90
981;DHT22;479;53.514;9.994;2022-10-23T06:28:50;9.80;99.90
981;DHT22;479;53.514;9.994;2022-10-23T06:31:17;9.80;99.90
981;DHT22;479;53.514;9.994;2022-10-23T06:33:46;9.80;99.90
981;DHT22;479;53.514;9.994;2022-10-23T06:36:13;9.80;99.90
981;DHT22;479;53.514;9.994;2022-10-23T06:38:41;9.80;99.90
981;DHT22;479;53.514;9.994;2022-10-23T06:41:12;10.00;99.90
981;DHT22;479;53.514;9.994;2022-10-23T06:43:40;10.00;99.90
981;DHT22;479;53.514;9.994;2022-10-23T06:46:16;10.00;99.90
981;DHT22;479;53.514;9.994;2022-10-23T06:49:03;10.00;99.90
981;DHT22;479;53.514;9.994;2022-10-23T06:51:35;10.10;99.90
981;DHT22;479;53.514;9.994;2022-10-23T06:54:03;10.10;99.90
981;DHT22;479;53.514;9.994;2022-10-23T06:56:56;10.10;99.90
981;DHT22;479;53.514;9.994;2022-10-23T06:59:33;10.10;99.90
981;DHT22;479;53.514;9.994;2022-10-23T07:02:01;10.10;99.90
981;DHT22;479;53.514;9.994;2022-10-23T07:04:28;10.10;99.90
981;DHT22;479;53.514;9.994;2022-10-23T07:06:56;10.20;99.90
981;DHT22;479;53.514;9.994;2022-10-23T07:09:29;10.10;99.90
981;DHT22;479;53.514;9.994;2022-10-23T07:11:56;10.10;99.90
981;DHT22;479;53.514;9.994;2022-10-23T07:14:34;10.20;99.90
981;DHT22;479;53.514;9.994;2022-10-23T07:17:03;10.30;99.90
981;DHT22;479;53.514;9.994;2022-10-23T07:19:30;10.40;99.90
981;DHT22;479;53.514;9.994;2022-10-23T07:22:02;10.40;99.90
981;DHT22;479;53.514;9.994;2022-10-23T07:24:49;10.40;99.90
981;DHT22;479;53.514;9.994;2022-10-23T07:27:24;10.40;99.90
981;DHT22;479;53.514;9.994;2022-10-23T07:29:55;10.40;99.90
981;DHT22;479;53.514;9.994;2022-10-23T07:32:23;10.40;99.90
981;DHT22;479;53.514;9.994;2022-10-23T07:35:12;10.50;99.90
981;DHT22;479;53.514;9.994;2022-10-23T07:37:47;10.50;99.90
981;DHT22;479;53.514;9.994;2022-10-23T07:40:14;10.50;99.90
981;DHT22;479;53.514;9.994;2022-10-23T07:42:43;10.50;99.90
981;DHT22;479;53.514;9.994;2022-10-23T07:45:14;10.70;99.90
981;DHT22;479;53.514;9.994;2022-10-23T07:47:49;10.80;99.90
981;DHT22;479;53.514;9.994;2022-10-23T07:50:17;10.90;99.90
981;DHT22;479;53.514;9.994;2022-10-23T07:52:44;10.90;99.90
981;DHT22;479;53.514;9.994;2022-10-23T07:55:13;11.00;99.90
981;DHT22;479;53.514;9.994;2022-10-23T07:57:46;11.10;99.90
981;DHT22;479;53.514;9.994;2022-10-23T08:00:28;11.30;99.90
981;DHT22;479;53.514;9.994;2022-10-23T08:03:06;11.40;99.90
981;DHT22;479;53.514;9.994;2022-10-23T08:05:33;11.50;99.90
981;DHT22;479;53.514;9.994;2022-10-23T08:08:01;11.50;99.90
981;DHT22;479;53.514;9.994;2022-10-23T08:10:29;11.50;99.90
981;DHT22;479;53.514;9.994;2022-10-23T08:12:57;11.60;99.90
981;DHT22;479;53.514;9.994;2022-10-23T08:15:44;11.60;99.90
981;DHT22;479;53.514;9.994;2022-10-23T08:18:33;11.80;99.90
981;DHT22;479;53.514;9.994;2022-10-23T08:21:02;12.00;99.90
981;DHT22;479;53.514;9.994;2022-10-23T08:23:30;12.30;99.90
981;DHT22;479;53.514;9.994;2022-10-23T08:25:58;12.70;99.90
981;DHT22;479;53.514;9.994;2022-10-23T08:28:28;13.00;99.90
981;DHT22;479;53.514;9.994;2022-10-23T08:30:58;13.50;99.90
981;DHT22;479;53.514;9.994;2022-10-23T08:33:25;13.50;99.90
981;DHT22;479;53.514;9.994;2022-10-23T08:35:53;13.70;99.90
981;DHT22;479;53.514;9.994;2022-10-23T08:38:27;14.00;99.90
981;DHT22;479;53.514;9.994;2022-10-23T08:40:54;14.30;99.90
981;DHT22;479;53.514;9.994;2022-10-23T08:43:45;14.40;99.90
981;DHT22;479;53.514;9.994;2022-10-23T08:46:27;14.40;99.90
981;DHT22;479;53.514;9.994;2022-10-23T08:49:33;14.30;99.90
981;DHT22;479;53.514;9.994;2022-10-23T08:52:11;14.20;99.90
981;DHT22;479;53.514;9.994;2022-10-23T08:54:46;14.30;99.90
981;DHT22;479;53.514;9.994;2022-10-23T08:57:16;14.50;99.90
981;DHT22;479;53.514;9.994;2022-10-23T08:59:46;14.60;99.90
981;DHT22;479;53.514;9.994;2022-10-23T09:02:17;14.90;99.90
981;DHT22;479;53.514;9.994;2022-10-23T09:04:48;14.90;99.90
981;DHT22;479;53.514;9.994;2022-10-23T09:07:25;14.80;99.90
981;DHT22;479;53.514;9.994;2022-10-23T09:10:13;14.80;99.90
981;DHT22;479;53.514;9.994;2022-10-23T09:12:44;14.80;99.90
981;DHT22;479;53.514;9.994;2022-10-23T09:15:22;14.80;99.90
981;DHT22;479;53.514;9.994;2022-10-23T09:17:56;14.50;99.90
981;DHT22;479;53.514;9.994;2022-10-23T09:20:26;14.40;99.90
981;DHT22;479;53.514;9.994;2022-10-23T09:22:59;14.40;99.90
981;DHT22;479;53.514;9.994;2022-10-23T09:25:29;14.60;99.90
981;DHT22;479;53.514;9.994;2022-10-23T09:27:58;14.70;99.90
981;DHT22;479;53.514;9.994;2022-10-23T09:30:31;14.80;99.90
981;DHT22;479;53.514;9.994;2022-10-23T09:32:59;15.00;99.90
981;DHT22;479;53.514;9.994;2022-10-23T09:35:28;14.90;99.90
981;DHT22;479;53.514;9.994;2022-10-23T09:37:57;14.90;99.90
981;DHT22;479;53.514;9.994;2022-10-23T09:40:29;14.90;99.90
981;DHT22;479;53.514;9.994;2022-10-23T09:43:02;14.90;99.90
981;DHT22;479;53.514;9.994;2022-10-23T09:45:31;14.90;99.90
981;DHT22;479;53.514;9.994;2022-10-23T09:48:13;14.90;99.90
981;DHT22;479;53.514;9.994;2022-10-23T09:50:59;14.90;99.90
981;DHT22;479;53.514;9.994;2022-10-23T09:53:32;14.90;99.90
981;DHT22;479;53.514;9.994;2022-10-23T09:56:01;14.90;99.90
981;DHT22;479;53.514;9.994;2022-10-23T09:58:32;15.00;99.90
981;DHT22;479;53.514;9.994;2022-10-23T10:01:00;15.10;99.90
981;DHT22;479;53.514;9.994;2022-10-23T10:03:48;15.20;99.90
981;DHT22;479;53.514;9.994;2022-10-23T10:06:22;15.20;99.90
981;DHT22;479;53.514;9.994;2022-10-23T10:08:55;15.40;99.90
981;DHT22;479;53.514;9.994;2022-10-23T10:11:27;15.50;99.90
981;DHT22;479;53.514;9.994;2022-10-23T10:14:22;15.80;99.90
981;DHT22;479;53.514;9.994;2022-10-23T10:16:56;16.00;99.90
981;DHT22;479;53.514;9.994;2022-10-23T10:19:35;16.00;99.90
981;DHT22;479;53.514;9.994;2022-10-23T10:22:15;16.00;99.90
981;DHT22;479;53.514;9.994;2022-10-23T10:24:51;16.00;99.90
981;DHT22;479;53.514;9.994;2022-10-23T10:27:31;16.00;99.90
981;DHT22;479;53.514;9.994;2022-10-23T10:30:07;16.10;99.90
981;DHT22;479;53.514;9.994;2022-10-23T10:32:40;16.10;99.90
981;DHT22;479;53.514;9.994;2022-10-23T10:35:22;16.10;99.90
981;DHT22;479;53.514;9.994;2022-10-23T10:38:04;16.10;99.90
981;DHT22;479;53.514;9.994;2022-10-23T10:40:40;16.10;99.90
981;DHT22;479;53.514;9.994;2022-10-23T10:43:21;16.20;99.90
981;DHT22;479;53.514;9.994;2022-10-23T10:45:56;16.30;99.90
981;DHT22;479;53.514;9.994;2022-10-23T10:48:40;16.40;99.90
981;DHT22;479;53.514;9.994;2022-10-23T10:51:21;16.50;99.90
981;DHT22;479;53.514;9.994;2022-10-23T10:54:20;16.40;99.90
981;DHT22;479;53.514;9.994;2022-10-23T10:56:52;16.50;99.90
981;DHT22;479;53.514;9.994;2022-10-23T10:59:23;16.60;99.90
981;DHT22;479;53.514;9.994;2022-10-23T11:02:01;16.60;99.90
981;DHT22;479;53.514;9.994;2022-10-23T11:04:34;16.70;99.90
981;DHT22;479;53.514;9.994;2022-10-23T11:07:06;16.70;99.90
981;DHT22;479;53.514;9.994;2022-10-23T11:09:37;16.70;99.90
981;DHT22;479;53.514;9.994;2022-10-23T11:12:06;16.70;99.90
981;DHT22;479;53.514;9.994;2022-10-23T11:14:33;16.70;99.90
981;DHT22;479;53.514;9.994;2022-10-23T11:17:03;16.70;99.90
981;DHT22;479;53.514;9.994;2022-10-23T11:19:36;16.80;99.90
981;DHT22;479;53.514;9.994;2022-10-23T11:22:08;16.80;99.90
981;DHT22;479;53.514;9.994;2022-10-23T11:25:07;16.80;99.90
981;DHT22;479;53.514;9.994;2022-10-23T11:27:54;16.80;99.90
981;DHT22;479;53.514;9.994;2022-10-23T11:30:30;16.80;99.90
981;DHT22;479;53.514;9.994;2022-10-23T11:33:17;16.70;99.90
981;DHT22;479;53.514;9.994;2022-10-23T11:35:56;16.70;99.90
981;DHT22;479;53.514;9.994;2022-10-23T11:38:32;16.80;99.90
981;DHT22;479;53.514;9.994;2022-10-23T11:41:02;16.90;99.90
981;DHT22;479;53.514;9.994;2022-10-23T11:43:32;16.90;99.90
981;DHT22;479;53.514;9.994;2022-10-23T11:46:12;16.90;99.90
981;DHT22;479;53.514;9.994;2022-10-23T11:48:40;16.90;99.90
981;DHT22;479;53.514;9.994;2022-10-23T11:51:25;17.00;99.90
981;DHT22;479;53.514;9.994;2022-10-23T11:54:04;17.00;99.90
981;DHT22;479;53.514;9.994;2022-10-23T11:56:32;16.90;99.90
981;DHT22;479;53.514;9.994;2022-10-23T11:59:18;16.80;99.90
981;DHT22;479;53.514;9.994;2022-10-23T12:01:49;16.90;99.90
981;DHT22;479;53.514;9.994;2022-10-23T12:04:21;17.00;99.90
981;DHT22;479;53.514;9.994;2022-10-23T12:06:52;17.00;99.90
981;DHT22;479;53.514;9.994;2022-10-23T12:09:25;17.00;99.90
981;DHT22;479;53.514;9.994;2022-10-23T12:12:15;17.00;99.90
981;DHT22;479;53.514;9.994;2022-10-23T12:14:46;17.10;99.90
981;DHT22;479;53.514;9.994;2022-10-23T12:17:32;17.10;99.90
981;DHT22;479;53.514;9.994;2022-10-23T12:20:12;17.10;99.90
981;DHT22;479;53.514;9.994;2022-10-23T12:22:50;17.10;99.90
981;DHT22;479;53.514;9.994;2022-10-23T12:25:24;17.00;99.90
981;DHT22;479;53.514;9.994;2022-10-23T12:27:57;17.00;99.90
981;DHT22;479;53.514;9.994;2022-10-23T12:30:33;17.00;99.90
981;DHT22;479;53.514;9.994;2022-10-23T12:33:10;17.00;99.90
981;DHT22;479;53.514;9.994;2022-10-23T12:35:52;16.90;99.90
981;DHT22;479;53.514;9.994;2022-10-23T12:38:25;17.00;99.90
981;DHT22;479;53.514;9.994;2022-10-23T12:40:54;16.90;99.90
981;DHT22;479;53.514;9.994;2022-10-23T12:43:26;16.90;99.90
981;DHT22;479;53.514;9.994;2022-10-23T12:45:55;16.90;99.90
981;DHT22;479;53.514;9.994;2022-10-23T12:48:24;16.80;99.90
981;DHT22;479;53.514;9.994;2022-10-23T12:50:52;16.80;99.90
981;DHT22;479;53.514;9.994;2022-10-23T12:53:21;16.80;99.90
981;DHT22;479;53.514;9.994;2022-10-23T12:55:52;16.90;99.90
981;DHT22;479;53.514;9.994;2022-10-23T12:58:23;16.80;99.90
981;DHT22;479;53.514;9.994;2022-10-23T13:00:55;16.90;99.90
981;DHT22;479;53.514;9.994;2022-10-23T13:03:24;17.00;99.90
981;DHT22;479;53.514;9.994;2022-10-23T13:05:53;16.90;99.90
981;DHT22;479;53.514;9.994;2022-10-23T13:08:28;16.90;99.90
981;DHT22;479;53.514;9.994;2022-10-23T13:11:24;17.00;99.90
981;DHT22;479;53.514;9.994;2022-10-23T13:13:54;16.90;99.90
981;DHT22;479;53.514;9.994;2022-10-23T13:16:24;16.90;99.90
981;DHT22;479;53.514;9.994;2022-10-23T13:18:51;16.90;99.90
981;DHT22;479;53.514;9.994;2022-10-23T13:21:21;16.80;99.90
981;DHT22;479;53.514;9.994;2022-10-23T13:23:49;16.80;99.90
981;DHT22;479;53.514;9.994;2022-10-23T13:26:33;16.70;99.90
981;DHT22;479;53.514;9.994;2022-10-23T13:29:01;16.70;99.90
981;DHT22;479;53.514;9.994;2022-10-23T13:31:32;16.70;99.90
981;DHT22;479;53.514;9.994;2022-10-23T13:34:15;16.60;99.90
981;DHT22;479;53.514;9.994;2022-10-23T13:36:51;16.60;99.90
981;DHT22;479;53.514;9.994;2022-10-23T13:39:22;16.60;99.90
981;DHT22;479;53.514;9.994;2022-10-23T13:41:50;16.60;99.90
981;DHT22;479;53.514;9.994;2022-10-23T13:44:19;16.60;99.90
981;DHT22;479;53.514;9.994;2022-10-23T13:46:48;16.60;99.90
981;DHT22;479;53.514;9.994;2022-10-23T13:49:17;16.60;99.90
981;DHT22;479;53.514;9.994;2022-10-23T13:51:48;16.60;99.90
981;DHT22;479;53.514;9.994;2022-10-23T13:54:17;16.60;99.90
981;DHT22;479;53.514;9.994;2022-10-23T13:56:45;16.60;99.90
981;DHT22;479;53.514;9.994;2022-10-23T13:59:13;16.60;99.90
981;DHT22;479;53.514;9.994;2022-10-23T14:01:41;16.50;99.90
981;DHT22;479;53.514;9.994;2022-10-23T14:04:11;16.50;99.90
981;DHT22;479;53.514;9.994;2022-10-23T14:06:38;16.50;99.90
981;DHT22;479;53.514;9.994;2022-10-23T14:09:09;16.50;99.90
981;DHT22;479;53.514;9.994;2022-10-23T14:11:37;16.50;99.90
981;DHT22;479;53.514;9.994;2022-10-23T14:14:04;16.40;99.90
981;DHT22;479;53.514;9.994;2022-10-23T14:16:31;16.40;99.90
981;DHT22;479;53.514;9.994;2022-10-23T14:18:58;16.40;99.90
981;DHT22;479;53.514;9.994;2022-10-23T14:21:26;16.40;99.90
981;DHT22;479;53.514;9.994;2022-10-23T14:23:53;16.30;99.90
981;DHT22;479;53.514;9.994;2022-10-23T14:26:22;16.30;99.90
981;DHT22;479;53.514;9.994;2022-10-23T14:28:51;16.30;99.90
981;DHT22;479;53.514;9.994;2022-10-23T14:31:18;16.20;99.90
981;DHT22;479;53.514;9.994;2022-10-23T14:33:49;16.30;99.90
981;DHT22;479;53.514;9.994;2022-10-23T14:36:16;16.20;99.90
981;DHT22;479;53.514;9.994;2022-10-23T14:38:44;16.20;99.90
981;DHT22;479;53.514;9.994;2022-10-23T14:41:12;16.20;99.90
981;DHT22;479;53.514;9.994;2022-10-23T14:43:39;16.20;99.90
981;DHT22;479;53.514;9.994;2022-10-23T14:46:12;16.20;99.90
981;DHT22;479;53.514;9.994;2022-10-23T14:48:39;16.20;99.90
981;DHT22;479;53.514;9.994;2022-10-23T14:51:15;16.20;99.90
981;DHT22;479;53.514;9.994;2022-10-23T14:53:42;16.20;99.90
981;DHT22;479;53.514;9.994;2022-10-23T14:56:10;16.10;99.90
981;DHT22;479;53.514;9.994;2022-10-23T14:58:38;16.10;99.90
981;DHT22;479;53.514;9.994;2022-10-23T15:01:05;16.10;99.90
981;DHT22;479;53.514;9.994;2022-10-23T15:03:32;16.10;99.90
981;DHT22;479;53.514;9.994;2022-10-23T15:05:58;16.00;99.90
981;DHT22;479;53.514;9.994;2022-10-23T15:08:25;16.00;99.90
981;DHT22;479;53.514;9.994;2022-10-23T15:10:52;16.00;99.90
981;DHT22;479;53.514;9.994;2022-10-23T15:13:20;15.90;99.90
981;DHT22;479;53.514;9.994;2022-10-23T15:15:47;15.90;99.90
981;DHT22;479;53.514;9.994;2022-10-23T15:18:14;15.90;99.90
981;DHT22;479;53.514;9.994;2022-10-23T15:20:50;15.80;99.90
981;DHT22;479;53.514;9.994;2022-10-23T15:23:17;15.80;99.90
981;DHT22;479;53.514;9.994;2022-10-23T15:25:44;15.80;99.90
981;DHT22;479;53.514;9.994;2022-10-23T15:28:21;15.80;99.90
981;DHT22;479;53.514;9.994;2022-10-23T15:30:48;15.70;99.90
981;DHT22;479;53.514;9.994;2022-10-23T15:33:14;15.70;99.90
981;DHT22;479;53.514;9.994;2022-10-23T15:35:41;15.60;99.90
981;DHT22;479;53.514;9.994;2022-10-23T15:38:08;15.50;99.90
981;DHT22;479;53.514;9.994;2022-10-23T15:40:35;15.50;99.90
981;DHT22;479;53.514;9.994;2022-10-23T15:43:02;15.50;99.90
981;DHT22;479;53.514;9.994;2022-10-23T15:45:31;15.50;99.90
981;DHT22;479;53.514;9.994;2022-10-23T15:47:58;15.40;99.90
981;DHT22;479;53.514;9.994;2022-10-23T15:50:25;15.40;99.90
981;DHT22;479;53.514;9.994;2022-10-23T15:52:52;15.40;99.90
981;DHT22;479;53.514;9.994;2022-10-23T15:55:18;15.40;99.90
981;DHT22;479;53.514;9.994;2022-10-23T15:57:45;15.30;99.90
981;DHT22;479;53.514;9.994;2022-10-23T16:00:13;15.30;99.90
981;DHT22;479;53.514;9.994;2022-10-23T16:02:43;15.30;99.90
981;DHT22;479;53.514;9.994;2022-10-23T16:05:10;15.30;99.90
981;DHT22;479;53.514;9.994;2022-10-23T16:07:37;15.30;99.90
981;DHT22;479;53.514;9.994;2022-10-23T16:10:05;15.30;99.90
981;DHT22;479;53.514;9.994;2022-10-23T16:12:32;15.20;99.90
981;DHT22;479;53.514;9.994;2022-10-23T16:14:58;15.20;99.90
981;DHT22;479;53.514;9.994;2022-10-23T16:17:25;15.20;99.90
981;DHT22;479;53.514;9.994;2022-10-23T16:19:53;15.20;99.90
981;DHT22;479;53.514;9.994;2022-10-23T16:22:20;15.20;99.90
981;DHT22;479;53.514;9.994;2022-10-23T16:24:47;15.20;99.90
981;DHT22;479;53.514;9.994;2022-10-23T16:27:14;15.20;99.90
981;DHT22;479;53.514;9.994;2022-10-23T16:29:41;15.20;99.90
981;DHT22;479;53.514;9.994;2022-10-23T16:32:08;15.10;99.90
981;DHT22;479;53.514;9.994;2022-10-23T16:34:35;15.10;99.90
981;DHT22;479;53.514;9.994;2022-10-23T16:37:03;15.20;99.90
981;DHT22;479;53.514;9.994;2022-10-23T16:39:45;15.10;99.90
981;DHT22;479;53.514;9.994;2022-10-23T16:42:47;15.20;99.90
981;DHT22;479;53.514;9.994;2022-10-23T16:45:34;15.10;99.90
981;DHT22;479;53.514;9.994;2022-10-23T16:48:01;15.10;99.90
981;DHT22;479;53.514;9.994;2022-10-23T16:50:27;15.20;99.90
981;DHT22;479;53.514;9.994;2022-10-23T16:52:56;15.20;99.90
981;DHT22;479;53.514;9.994;2022-10-23T16:55:23;15.20;99.90
981;DHT22;479;53.514;9.994;2022-10-23T16:57:50;15.20;99.90
981;DHT22;479;53.514;9.994;2022-10-23T17:00:17;15.20;99.90
981;DHT22;479;53.514;9.994;2022-10-23T17:02:46;15.20;99.90
981;DHT22;479;53.514;9.994;2022-10-23T17:05:13;15.10;99.90
981;DHT22;479;53.514;9.994;2022-10-23T17:07:40;15.10;99.90